createdAt,value
2023-02-23T00:01:25.816Z,8.70
2023-02-23T00:03:56.198Z,8.70
2023-02-23T00:06:25.576Z,8.70
2023-02-23T00:08:53.904Z,8.70
2023-02-23T00:11:22.948Z,8.70
2023-02-23T00:13:51.800Z,8.70
2023-02-23T00:16:21.824Z,8.70
2023-02-23T00:18:51.357Z,8.70
2023-02-23T00:21:23.064Z,8.70
2023-02-23T00:23:52.112Z,8.70
2023-02-23T00:26:21.585Z,8.70
2023-02-23T00:28:50.898Z,8.70
2023-02-23T00:31:19.210Z,8.70
2023-02-23T00:33:47.293Z,8.70
2023-02-23T00:36:15.961Z,8.70
2023-02-23T00:38:45.935Z,8.70
2023-02-23T00:41:17.178Z,8.70
2023-02-23T00:43:47.466Z,8.70
2023-02-23T00:46:16.498Z,8.70
2023-02-23T00:48:44.736Z,8.60
2023-02-23T00:51:14.028Z,8.60
2023-02-23T00:53:42.273Z,8.60
2023-02-23T00:56:13.683Z,8.60
2023-02-23T00:58:42.112Z,8.60
2023-02-23T01:01:10.980Z,8.60
2023-02-23T01:03:40.055Z,8.60
2023-02-23T01:06:10.388Z,8.60
2023-02-23T01:08:40.686Z,8.60
2023-02-23T01:11:10.647Z,8.60
2023-02-23T01:13:41.146Z,8.60
2023-02-23T01:16:10.874Z,8.60
2023-02-23T01:18:40.006Z,8.60
2023-02-23T01:21:16.146Z,8.60
2023-02-23T01:23:44.137Z,8.60
2023-02-23T01:26:19.092Z,8.60
2023-02-23T01:28:51.038Z,8.60
2023-02-23T01:31:19.689Z,8.60
2023-02-23T01:33:47.699Z,8.60
2023-02-23T01:36:15.471Z,8.60
2023-02-23T01:38:43.317Z,8.60
2023-02-23T01:41:11.110Z,8.60
2023-02-23T01:43:59.914Z,8.60
2023-02-23T01:46:27.979Z,8.50
2023-02-23T01:48:57.332Z,8.60
2023-02-23T01:51:27.467Z,8.60
2023-02-23T01:54:01.404Z,8.50
2023-02-23T01:56:32.849Z,8.50
2023-02-23T01:59:06.397Z,8.50
2023-02-23T02:01:34.306Z,8.50
2023-02-23T02:04:06.328Z,8.50
2023-02-23T02:06:35.365Z,8.50
2023-02-23T02:09:07.595Z,8.50
2023-02-23T02:11:37.086Z,8.50
2023-02-23T02:14:12.842Z,8.50
2023-02-23T02:17:02.165Z,8.50
2023-02-23T02:19:59.193Z,8.50
2023-02-23T02:22:59.017Z,8.50
2023-02-23T02:25:45.770Z,8.50
2023-02-23T02:28:40.532Z,8.50
2023-02-23T02:31:36.203Z,8.50
2023-02-23T02:34:33.397Z,8.50
2023-02-23T02:37:20.329Z,8.50
2023-02-23T02:39:54.984Z,8.50
2023-02-23T02:42:30.870Z,8.50
2023-02-23T02:45:07.606Z,8.50
2023-02-23T02:47:40.114Z,8.50
2023-02-23T02:50:12.306Z,8.50
2023-02-23T02:52:45.923Z,8.50
2023-02-23T02:55:18.365Z,8.50
2023-02-23T02:57:47.864Z,8.50
2023-02-23T03:00:37.108Z,8.50
2023-02-23T03:03:22.476Z,8.50
2023-02-23T03:06:10.901Z,8.50
2023-02-23T03:09:03.176Z,8.50
2023-02-23T03:11:57.492Z,8.50
2023-02-23T03:14:49.738Z,8.50
2023-02-23T03:17:42.826Z,8.50
2023-02-23T03:20:36.626Z,8.50
2023-02-23T03:23:34.461Z,8.50
2023-02-23T03:26:25.641Z,8.50
2023-02-23T03:29:20.335Z,8.50
2023-02-23T03:32:10.294Z,8.50
2023-02-23T03:35:00.929Z,8.50
2023-02-23T03:37:50.688Z,8.50
2023-02-23T03:40:39.777Z,8.50
2023-02-23T03:43:29.744Z,8.50
2023-02-23T03:46:17.175Z,8.50
2023-02-23T03:49:05.963Z,8.50
2023-02-23T03:51:55.768Z,8.50
2023-02-23T03:54:46.331Z,8.50
2023-02-23T03:57:34.998Z,8.50
2023-02-23T04:00:26.331Z,8.50
2023-02-23T04:03:13.363Z,8.50
2023-02-23T04:06:01.006Z,8.50
2023-02-23T04:08:51.166Z,8.50
2023-02-23T04:11:43.019Z,8.50
2023-02-23T04:14:18.315Z,8.50
2023-02-23T04:16:47.748Z,8.50
2023-02-23T04:19:15.819Z,8.50
2023-02-23T04:21:43.569Z,8.40
2023-02-23T04:24:12.032Z,8.40
2023-02-23T04:26:40.011Z,8.40
2023-02-23T04:29:07.763Z,8.40
2023-02-23T04:31:35.576Z,8.40
2023-02-23T04:34:04.800Z,8.40
2023-02-23T04:36:32.533Z,8.40
2023-02-23T04:39:00.236Z,8.40
2023-02-23T04:41:27.958Z,8.40
2023-02-23T04:43:55.732Z,8.40
2023-02-23T04:46:23.741Z,8.40
2023-02-23T04:48:51.466Z,8.40
2023-02-23T04:51:20.682Z,8.40
2023-02-23T04:53:48.493Z,8.40
2023-02-23T04:56:16.195Z,8.40
2023-02-23T04:58:44.250Z,8.30
2023-02-23T05:01:12.044Z,8.30
2023-02-23T05:03:39.899Z,8.30
2023-02-23T05:06:07.799Z,8.30
2023-02-23T05:08:36.870Z,8.30
2023-02-23T05:11:04.772Z,8.40
2023-02-23T05:13:33.009Z,8.40
2023-02-23T05:16:00.905Z,8.40
2023-02-23T05:18:29.116Z,8.40
2023-02-23T05:21:03.546Z,8.40
2023-02-23T05:23:31.326Z,8.40
2023-02-23T05:26:05.716Z,8.40
2023-02-23T05:28:34.463Z,8.30
2023-02-23T05:31:03.635Z,8.30
2023-02-23T05:33:31.483Z,8.30
2023-02-23T05:35:59.701Z,8.30
2023-02-23T05:38:28.139Z,8.30
2023-02-23T05:40:55.859Z,8.30
2023-02-23T05:43:24.905Z,8.30
2023-02-23T05:45:52.729Z,8.30
2023-02-23T05:48:20.449Z,8.30
2023-02-23T05:50:48.167Z,8.30
2023-02-23T05:53:15.894Z,8.30
2023-02-23T05:55:43.612Z,8.30
2023-02-23T05:58:11.415Z,8.30
2023-02-23T06:00:40.465Z,8.30
2023-02-23T06:03:08.170Z,8.30
2023-02-23T06:05:35.956Z,8.30
2023-02-23T06:08:03.678Z,8.30
2023-02-23T06:10:31.431Z,8.30
2023-02-23T06:12:59.166Z,8.30
2023-02-23T06:15:28.557Z,8.30
2023-02-23T06:17:59.061Z,8.30
2023-02-23T06:20:26.843Z,8.30
2023-02-23T06:22:54.848Z,8.30
2023-02-23T06:25:22.566Z,8.30
2023-02-23T06:27:50.283Z,8.30
2023-02-23T06:30:19.005Z,8.30
2023-02-23T06:32:46.707Z,8.30
2023-02-23T06:35:15.798Z,8.30
2023-02-23T06:37:44.233Z,8.30
2023-02-23T06:40:12.726Z,8.30
2023-02-23T06:42:40.428Z,8.30
2023-02-23T06:45:08.901Z,8.30
2023-02-23T06:47:36.604Z,8.30
2023-02-23T06:50:05.050Z,8.30
2023-02-23T06:52:34.395Z,8.30
2023-02-23T06:55:02.279Z,8.30
2023-02-23T06:57:30.013Z,8.30
2023-02-23T06:59:57.995Z,8.30
2023-02-23T07:02:25.730Z,8.30
2023-02-23T07:04:53.463Z,8.30
2023-02-23T07:07:22.117Z,8.30
2023-02-23T07:09:51.184Z,8.30
2023-02-23T07:12:19.006Z,8.30
2023-02-23T07:14:46.724Z,8.30
2023-02-23T07:17:14.452Z,8.30
2023-02-23T07:19:42.189Z,8.30
2023-02-23T07:22:09.961Z,8.30
2023-02-23T07:24:38.560Z,8.30
2023-02-23T07:27:07.776Z,8.30
2023-02-23T07:29:35.476Z,8.30
2023-02-23T07:32:03.269Z,8.30
2023-02-23T07:34:31.226Z,8.30
2023-02-23T07:36:58.934Z,8.30
2023-02-23T07:39:26.924Z,8.30
2023-02-23T07:41:54.653Z,8.30
2023-02-23T07:44:23.991Z,8.30
2023-02-23T07:46:52.728Z,8.30
2023-02-23T07:49:20.471Z,8.30
2023-02-23T07:51:48.229Z,8.30
2023-02-23T07:54:16.629Z,8.30
2023-02-23T07:56:44.429Z,8.30
2023-02-23T07:59:12.188Z,8.30
2023-02-23T08:01:41.333Z,8.30
2023-02-23T08:04:09.156Z,8.30
2023-02-23T08:06:37.052Z,8.30
2023-02-23T08:09:05.925Z,8.30
2023-02-23T08:11:33.647Z,8.30
2023-02-23T08:14:01.367Z,8.30
2023-02-23T08:16:29.708Z,8.30
2023-02-23T08:18:59.242Z,8.30
2023-02-23T08:21:29.116Z,8.30
2023-02-23T08:23:57.164Z,8.40
2023-02-23T08:26:25.321Z,8.30
2023-02-23T08:28:53.162Z,8.30
2023-02-23T08:31:23.925Z,8.30
2023-02-23T08:33:52.639Z,8.30
2023-02-23T08:36:21.801Z,8.30
2023-02-23T08:38:49.722Z,8.40
2023-02-23T08:41:18.622Z,8.30
2023-02-23T08:43:46.575Z,8.40
2023-02-23T08:46:14.617Z,8.40
2023-02-23T08:48:42.422Z,8.40
2023-02-23T08:51:10.377Z,8.40
2023-02-23T08:53:39.506Z,8.40
2023-02-23T08:56:09.235Z,8.40
2023-02-23T08:58:37.983Z,8.30
2023-02-23T09:01:06.437Z,8.30
2023-02-23T09:03:38.307Z,8.40
2023-02-23T09:06:09.909Z,8.40
2023-02-23T09:08:39.304Z,8.40
2023-02-23T09:11:07.283Z,8.40
2023-02-23T09:13:35.183Z,8.50
2023-02-23T09:16:04.055Z,8.40
2023-02-23T09:18:32.547Z,8.40
2023-02-23T09:21:00.538Z,8.40
2023-02-23T09:23:29.318Z,8.40
2023-02-23T09:26:03.771Z,8.40
2023-02-23T09:28:33.774Z,8.40
2023-02-23T09:31:07.168Z,8.40
2023-02-23T09:33:35.020Z,8.40
2023-02-23T09:36:07.300Z,8.40
2023-02-23T09:38:35.100Z,8.40
2023-02-23T09:41:05.504Z,8.40
2023-02-23T09:43:43.373Z,8.40
2023-02-23T09:46:22.991Z,8.30
2023-02-23T09:48:52.464Z,8.30
2023-02-23T09:51:22.400Z,8.30
2023-02-23T09:53:54.513Z,8.30
2023-02-23T09:56:31.707Z,8.30
2023-02-23T09:59:01.126Z,8.30
2023-02-23T10:01:45.779Z,8.30
2023-02-23T10:04:20.492Z,8.30
2023-02-23T10:06:55.420Z,8.40
2023-02-23T10:09:29.037Z,8.40
2023-02-23T10:12:08.363Z,8.40
2023-02-23T10:14:57.156Z,8.40
2023-02-23T10:17:36.529Z,8.40
2023-02-23T10:20:14.664Z,8.40
2023-02-23T10:22:43.288Z,8.40
2023-02-23T10:25:14.941Z,8.40
2023-02-23T10:27:46.794Z,8.40
2023-02-23T10:30:20.374Z,8.40
2023-02-23T10:32:53.322Z,8.40
2023-02-23T10:35:23.178Z,8.50
2023-02-23T10:37:53.289Z,8.50
2023-02-23T10:40:24.335Z,8.50
2023-02-23T10:42:53.998Z,8.50
2023-02-23T10:45:24.731Z,8.50
2023-02-23T10:47:56.288Z,8.50
2023-02-23T10:50:27.363Z,8.60
2023-02-23T10:53:00.108Z,8.60
2023-02-23T10:55:30.222Z,8.60
2023-02-23T10:58:17.700Z,8.70
2023-02-23T11:00:54.302Z,8.70
2023-02-23T11:03:28.658Z,8.70
2023-02-23T11:05:56.720Z,8.70
2023-02-23T11:08:29.210Z,8.80
2023-02-23T11:11:03.585Z,8.80
2023-02-23T11:13:40.300Z,8.80
2023-02-23T11:16:13.101Z,8.80
2023-02-23T11:18:44.406Z,8.80
2023-02-23T11:21:22.460Z,8.80
2023-02-23T11:23:52.202Z,8.80
2023-02-23T11:26:31.605Z,8.80
2023-02-23T11:29:05.621Z,8.80
2023-02-23T11:31:35.855Z,8.90
2023-02-23T11:34:05.472Z,8.90
2023-02-23T11:36:35.270Z,8.90
2023-02-23T11:39:15.407Z,8.90
2023-02-23T11:41:43.121Z,8.90
2023-02-23T11:44:21.965Z,8.90
2023-02-23T11:46:51.954Z,8.90
2023-02-23T11:49:22.394Z,8.90
2023-02-23T11:51:54.294Z,8.90
2023-02-23T11:54:28.514Z,8.90
2023-02-23T11:56:57.854Z,8.90
2023-02-23T11:59:31.316Z,8.90
2023-02-23T12:02:06.194Z,9.00
2023-02-23T12:04:37.886Z,9.00
2023-02-23T12:07:37.284Z,9.00
2023-02-23T12:10:11.422Z,9.00
2023-02-23T12:12:47.675Z,8.90
2023-02-23T12:15:25.621Z,8.90
2023-02-23T12:17:58.379Z,8.90
2023-02-23T12:20:29.458Z,8.90
2023-02-23T12:23:02.012Z,8.90
2023-02-23T12:25:37.565Z,8.90
2023-02-23T12:28:19.224Z,8.90
2023-02-23T12:30:52.899Z,8.80
2023-02-23T12:33:30.036Z,8.80
2023-02-23T12:36:03.005Z,8.80
2023-02-23T12:38:40.600Z,8.80
2023-02-23T12:41:28.922Z,8.80
2023-02-23T12:44:03.320Z,8.80
2023-02-23T12:46:40.463Z,8.80
2023-02-23T12:49:17.855Z,8.80
2023-02-23T12:51:52.248Z,8.80
2023-02-23T12:54:20.164Z,8.70
2023-02-23T12:56:55.781Z,8.80
2023-02-23T12:59:46.924Z,8.80
2023-02-23T13:02:23.213Z,8.80
2023-02-23T13:05:05.870Z,8.80
2023-02-23T13:07:44.717Z,8.80
2023-02-23T13:10:23.425Z,8.90
2023-02-23T13:12:58.276Z,8.90
2023-02-23T13:15:36.012Z,8.90
2023-02-23T13:18:14.396Z,8.80
2023-02-23T13:20:48.930Z,8.80
2023-02-23T13:23:26.360Z,8.80
2023-02-23T13:26:00.500Z,8.70
2023-02-23T13:28:40.304Z,8.70
2023-02-23T13:31:21.273Z,8.70
2023-02-23T13:33:51.225Z,8.70
2023-02-23T13:36:21.479Z,8.70
2023-02-23T13:39:17.913Z,8.60
2023-02-23T13:41:53.495Z,8.60
2023-02-23T13:44:27.628Z,8.50
2023-02-23T13:47:04.528Z,8.60
2023-02-23T13:49:39.326Z,8.60
2023-02-23T13:52:21.022Z,8.60
2023-02-23T13:55:03.011Z,8.60
2023-02-23T13:57:31.845Z,8.60
2023-02-23T14:00:00.771Z,8.60
2023-02-23T14:02:38.023Z,8.60
2023-02-23T14:05:17.881Z,8.50
2023-02-23T14:07:49.482Z,8.50
2023-02-23T14:10:21.774Z,8.40
2023-02-23T14:13:09.474Z,8.30
2023-02-23T14:15:45.611Z,8.20
2023-02-23T14:18:31.464Z,8.20
2023-02-23T14:21:12.157Z,8.10
2023-02-23T14:24:17.452Z,8.10
2023-02-23T14:26:46.987Z,8.10
2023-02-23T14:29:27.496Z,8.10
2023-02-23T14:31:58.462Z,8.00
2023-02-23T14:34:45.181Z,8.00
2023-02-23T14:37:25.090Z,8.00
2023-02-23T14:39:54.656Z,8.00
2023-02-23T14:42:25.543Z,8.00
2023-02-23T14:44:54.534Z,8.00
2023-02-23T14:47:23.935Z,8.00
2023-02-23T14:49:56.863Z,8.00
2023-02-23T14:52:28.488Z,8.00
2023-02-23T14:55:09.467Z,8.00
2023-02-23T14:57:38.266Z,8.00
2023-02-23T15:00:20.991Z,7.90
2023-02-23T15:02:57.432Z,7.90
2023-02-23T15:05:27.327Z,7.90
2023-02-23T15:07:59.527Z,7.90
2023-02-23T15:10:31.260Z,7.90
2023-02-23T15:13:01.033Z,7.90
2023-02-23T15:15:30.676Z,7.90
2023-02-23T15:18:03.553Z,7.90
2023-02-23T15:23:05.617Z,7.80
2023-02-23T15:25:38.598Z,7.80
2023-02-23T15:28:21.502Z,7.80
2023-02-23T15:30:51.185Z,7.80
2023-02-23T15:33:23.466Z,7.70
2023-02-23T15:35:55.379Z,7.70
2023-02-23T15:38:42.951Z,7.70
2023-02-23T15:41:18.918Z,7.70
2023-02-23T15:43:47.066Z,7.70
2023-02-23T15:46:25.320Z,7.70
2023-02-23T15:48:55.290Z,7.70
2023-02-23T15:51:36.629Z,7.70
2023-02-23T15:54:13.935Z,7.70
2023-02-23T15:56:46.534Z,7.70
2023-02-23T15:59:23.730Z,7.60
2023-02-23T16:01:54.902Z,7.60
2023-02-23T16:04:28.964Z,7.60
2023-02-23T16:07:07.826Z,7.60
2023-02-23T16:09:39.861Z,7.60
2023-02-23T16:12:14.158Z,7.60
2023-02-23T16:14:47.273Z,7.70
2023-02-23T16:17:25.180Z,7.60
2023-02-23T16:19:53.482Z,7.60
2023-02-23T16:22:24.543Z,7.60
2023-02-23T16:25:00.558Z,7.60
2023-02-23T16:27:29.999Z,7.60
2023-02-23T16:30:06.860Z,7.60
2023-02-23T16:32:37.454Z,7.60
2023-02-23T16:35:12.372Z,7.60
2023-02-23T16:37:59.008Z,7.60
2023-02-23T16:40:28.496Z,7.60
2023-02-23T16:42:59.181Z,7.60
2023-02-23T16:45:29.293Z,7.60
2023-02-23T16:48:01.933Z,7.60
2023-02-23T16:50:30.214Z,7.60
2023-02-23T16:52:57.935Z,7.60
2023-02-23T16:55:29.096Z,7.60
2023-02-23T16:57:59.715Z,7.60
2023-02-23T17:00:30.267Z,7.60
2023-02-23T17:03:00.405Z,7.60
2023-02-23T17:05:30.032Z,7.60
2023-02-23T17:07:58.871Z,7.60
2023-02-23T17:10:30.954Z,7.50
2023-02-23T17:13:02.339Z,7.60
2023-02-23T17:15:33.349Z,7.50
2023-02-23T17:18:01.074Z,7.50
2023-02-23T17:20:29.828Z,7.50
2023-02-23T17:22:59.793Z,7.50
2023-02-23T17:25:28.306Z,7.50
2023-02-23T17:27:58.475Z,7.50
2023-02-23T17:30:27.019Z,7.50
2023-02-23T17:32:57.029Z,7.50
2023-02-23T17:35:25.664Z,7.50
2023-02-23T17:37:54.128Z,7.50
2023-02-23T17:40:28.594Z,7.50
2023-02-23T17:43:00.176Z,7.50
2023-02-23T17:45:29.122Z,7.50
2023-02-23T17:47:57.838Z,7.50
2023-02-23T17:50:27.291Z,7.50
2023-02-23T17:52:55.007Z,7.50
2023-02-23T17:55:24.257Z,7.50
2023-02-23T17:57:52.084Z,7.40
2023-02-23T18:00:21.907Z,7.40
2023-02-23T18:02:49.632Z,7.40
2023-02-23T18:05:17.742Z,7.40
2023-02-23T18:07:48.331Z,7.40
2023-02-23T18:10:16.787Z,7.40
2023-02-23T18:12:45.045Z,7.40
2023-02-23T18:15:12.940Z,7.40
2023-02-23T18:17:41.981Z,7.40
2023-02-23T18:20:13.910Z,7.40
2023-02-23T18:22:41.846Z,7.40
2023-02-23T18:25:10.671Z,7.40
2023-02-23T18:27:38.375Z,7.30
2023-02-23T18:30:07.380Z,7.30
2023-02-23T18:32:35.192Z,7.30
2023-02-23T18:35:04.696Z,7.30
2023-02-23T18:37:32.455Z,7.30
2023-02-23T18:40:00.208Z,7.30
2023-02-23T18:42:28.526Z,7.30
2023-02-23T18:44:56.230Z,7.30
2023-02-23T18:47:24.187Z,7.30
2023-02-23T18:49:53.102Z,7.30
2023-02-23T18:52:22.157Z,7.30
2023-02-23T18:54:50.119Z,7.30
2023-02-23T18:57:17.824Z,7.30
2023-02-23T18:59:46.696Z,7.30
2023-02-23T19:02:14.440Z,7.30
2023-02-23T19:04:42.164Z,7.30
2023-02-23T19:07:09.922Z,7.30
2023-02-23T19:09:40.840Z,7.30
2023-02-23T19:12:08.837Z,7.30
2023-02-23T19:14:48.810Z,7.30
2023-02-23T19:17:17.281Z,7.30
2023-02-23T19:19:45.310Z,7.30
2023-02-23T19:22:13.076Z,7.30
2023-02-23T19:24:42.314Z,7.30
2023-02-23T19:27:10.848Z,7.20
2023-02-23T19:29:38.708Z,7.20
2023-02-23T19:32:06.809Z,7.20
2023-02-23T19:34:34.713Z,7.10
2023-02-23T19:37:02.522Z,7.10
2023-02-23T19:39:30.260Z,7.10
2023-02-23T19:41:59.621Z,7.10
2023-02-23T19:44:27.498Z,7.00
2023-02-23T19:46:55.225Z,7.00
2023-02-23T19:49:22.984Z,6.90
2023-02-23T19:51:52.746Z,6.90
2023-02-23T19:54:20.581Z,6.90
2023-02-23T19:56:49.804Z,6.90
2023-02-23T19:59:18.869Z,6.90
2023-02-23T20:01:46.616Z,6.90
2023-02-23T20:04:14.374Z,6.90
2023-02-23T20:06:46.925Z,6.90
2023-02-23T20:09:15.694Z,6.80
2023-02-23T20:11:43.439Z,6.90
2023-02-23T20:14:12.343Z,6.80
2023-02-23T20:16:41.555Z,6.80
2023-02-23T20:19:09.380Z,6.80
2023-02-23T20:21:37.341Z,6.80
2023-02-23T20:24:06.484Z,6.80
2023-02-23T20:26:36.817Z,6.80
2023-02-23T20:29:06.632Z,6.80
2023-02-23T20:31:36.518Z,6.70
2023-02-23T20:34:09.783Z,6.70
2023-02-23T20:36:38.173Z,6.80
2023-02-23T20:39:06.280Z,6.80
2023-02-23T20:41:34.264Z,6.80
2023-02-23T20:44:02.249Z,6.80
2023-02-23T20:46:30.935Z,6.70
2023-02-23T20:48:59.214Z,6.70
2023-02-23T20:51:28.455Z,6.80
2023-02-23T20:53:56.437Z,6.70
2023-02-23T20:56:25.342Z,6.70
2023-02-23T20:58:54.222Z,6.70
2023-02-23T21:01:25.959Z,6.70
2023-02-23T21:03:55.047Z,6.70
2023-02-23T21:06:23.997Z,6.70
2023-02-23T21:08:55.555Z,6.70
2023-02-23T21:11:25.967Z,6.70
2023-02-23T21:13:53.890Z,6.70
2023-02-23T21:16:23.419Z,6.70
2023-02-23T21:18:56.812Z,6.70
2023-02-23T21:21:24.511Z,6.70
2023-02-23T21:23:53.606Z,6.70
2023-02-23T21:26:22.038Z,6.70
2023-02-23T21:28:49.856Z,6.70
2023-02-23T21:31:19.206Z,6.70
2023-02-23T21:33:47.183Z,6.70
2023-02-23T21:36:15.093Z,6.70
2023-02-23T21:38:44.975Z,6.70
2023-02-23T21:41:14.949Z,6.70
2023-02-23T21:43:44.469Z,6.70
2023-02-23T21:46:13.854Z,6.70
2023-02-23T21:48:41.907Z,6.70
2023-02-23T21:51:12.265Z,6.70
2023-02-23T21:53:40.411Z,6.70
2023-02-23T21:56:11.524Z,6.70
2023-02-23T21:58:44.716Z,6.70
2023-02-23T22:01:13.406Z,6.70
2023-02-23T22:03:44.972Z,6.70
2023-02-23T22:06:13.306Z,6.70
2023-02-23T22:08:42.970Z,6.70
2023-02-23T22:11:17.401Z,6.70
2023-02-23T22:13:47.250Z,6.70
2023-02-23T22:16:16.530Z,6.70
2023-02-23T22:18:44.545Z,6.70
2023-02-23T22:21:12.878Z,6.70
2023-02-23T22:23:43.305Z,6.70
2023-02-23T22:26:11.428Z,6.70
2023-02-23T22:28:39.144Z,6.70
2023-02-23T22:31:11.200Z,6.70
2023-02-23T22:33:42.861Z,6.70
2023-02-23T22:36:13.678Z,6.70
2023-02-23T22:38:42.318Z,6.70
2023-02-23T22:41:10.625Z,6.70
2023-02-23T22:43:38.670Z,6.70
2023-02-23T22:46:08.511Z,6.70
2023-02-23T22:48:37.221Z,6.70
2023-02-23T22:51:05.397Z,6.70
2023-02-23T22:53:33.371Z,6.70
2023-02-23T22:56:01.089Z,6.70
2023-02-23T22:58:28.880Z,6.70
2023-02-23T23:01:06.087Z,6.70
2023-02-23T23:03:37.428Z,6.70
2023-02-23T23:06:07.948Z,6.70
2023-02-23T23:08:38.621Z,6.70
2023-02-23T23:11:09.356Z,6.70
2023-02-23T23:13:40.891Z,6.70
2023-02-23T23:16:16.858Z,6.70
2023-02-23T23:18:56.415Z,6.70
2023-02-23T23:21:27.921Z,6.70
2023-02-23T23:23:57.134Z,6.70
2023-02-23T23:26:26.913Z,6.70
2023-02-23T23:28:57.675Z,6.70
2023-02-23T23:31:28.873Z,6.70
2023-02-23T23:34:00.675Z,6.70
2023-02-23T23:36:31.891Z,6.60
2023-02-23T23:39:01.058Z,6.60
2023-02-23T23:41:31.428Z,6.70
2023-02-23T23:44:00.727Z,6.70
2023-02-23T23:46:31.875Z,6.70
2023-02-23T23:49:03.313Z,6.70
2023-02-23T23:51:32.965Z,6.70
2023-02-23T23:54:02.471Z,6.70
2023-02-23T23:56:30.774Z,6.70
2023-02-23T23:58:59.261Z,6.70
